Home > Products > Valid Products > TAF

000
FTUS43 KLBF 291700
TAFVTN
TAF
KVTN 291721Z 2918/3018 VRB06KT P6SM SCT070 BKN200
     FM292100 09006KT P6SM SCT080 BKN200
     FM300800 18006KT P6SM SCT200=



000
FTUS43 KLBF 291700
TAFLBF
TAF
KLBF 291721Z 2918/3018 13008KT P6SM SCT080 BKN200
     FM300600 10006KT P6SM BKN050
     FM301400 15008KT P6SM SCT050 BKN200=



000
FTUS43 KLBF 291400 AAA
TAFLBF
TAF AMD
KLBF 291438Z 2915/3012 11006KT P6SM VCSH BKN050 BKN100 OVC200
      TEMPO 2915/2916 -SHRA BKN035
     FM291600 11006KT P6SM SCT050 BKN200
     FM300000 08005KT P6SM BKN200=



000
FTUS43 KLBF 291100
TAFLBF
TAF
KLBF 291120Z 2912/3012 11006KT P6SM BKN050 BKN100 OVC200
      TEMPO 2912/2913 5SM BR
     FM300000 08005KT P6SM BKN200=



000
FTUS43 KLBF 291100
TAFVTN
TAF
KVTN 291120Z 2912/3012 VRB03KT P6SM SCT050 SCT100
     FM291700 08006KT P6SM SCT250=



000
FTUS43 KLBF 290500
TAFLBF
TAF
KLBF 290520Z 2906/3006 11009KT P6SM SCT200
     FM300100 10005KT P6SM BKN200=



000
FTUS43 KLBF 290500
TAFVTN
TAF
KVTN 290520Z 2906/3006 09007KT P6SM SCT100=



000
FTUS43 KLBF 282300
TAFVTN
TAF
KVTN 282323Z 2900/2924 VRB06KT P6SM SCT070
     FM291800 10010KT P6SM BKN200=



000
FTUS43 KLBF 282300
TAFLBF
TAF
KLBF 282323Z 2900/2924 12008KT P6SM BKN070
     FM291800 12012KT P6SM BKN200=



000
FTUS43 KLBF 281700
TAFVTN
TAF
KVTN 281721Z 2818/2918 08007KT P6SM SCT100
     FM290600 13006KT P6SM BKN070
     FM291500 15010KT P6SM SCT150=



000
FTUS43 KLBF 281700
TAFLBF
TAF
KLBF 281721Z 2818/2918 13008KT P6SM SCT100
     FM290600 11010KT P6SM BKN070
     FM291500 12012KT P6SM SCT150=



000
FTUS43 KLBF 281100
TAFVTN
TAF
KVTN 281122Z 2812/2912 VRB03KT P6SM SCT100 SCT250
     FM281700 09008KT P6SM SCT090 SCT250
     FM290100 09006KT P6SM SKC=



000
FTUS43 KLBF 281100
TAFLBF
TAF
KLBF 281122Z 2812/2912 VRB04KT P6SM FEW090 SCT200
     FM281700 13007KT P6SM BKN090
     FM290000 VRB04KT P6SM SKC=



000
FTUS43 KLBF 280500
TAFLBF
TAF
KLBF 280524Z 2806/2906 VRB05KT P6SM FEW090 SCT200
     FM281200 13007KT P6SM BKN080=



000
FTUS43 KLBF 280500
TAFVTN
TAF
KVTN 280524Z 2806/2906 VRB04KT P6SM SCT250
     FM281600 07007KT P6SM SCT090 BKN250=



000
FTUS43 KLBF 272300
TAFVTN
TAF
KVTN 272335Z 2800/2824 36009KT P6SM SKC
     FM281200 VRB03KT P6SM SCT070
     FM281600 04007KT P6SM BKN070=



000
FTUS43 KLBF 272300
TAFLBF
TAF
KLBF 272335Z 2800/2824 06005KT P6SM FEW090
     FM281200 12005KT P6SM BKN080=



000
FTUS43 KLBF 271700
TAFVTN
TAF
KVTN 271721Z 2718/2818 33014G22KT P6SM SCT250
     FM280100 01008KT P6SM SCT120
     FM281500 05008KT P6SM SCT120=



000
FTUS43 KLBF 271700
TAFLBF
TAF
KLBF 271721Z 2718/2818 35010G18KT P6SM SCT090
     FM280100 06006KT P6SM SCT120
     FM281500 12008KT P6SM SCT120=



000
FTUS43 KLBF 271400 AAA
TAFVTN
TAF AMD
KVTN 271427Z 2714/2812 35011G18KT P6SM FEW250
     FM271600 34014G22KT P6SM FEW070 SCT250
     FM280100 01008KT P6SM SCT250=



000
FTUS43 KLBF 271100
TAFLBF
TAF
KLBF 271130Z 2712/2812 01008KT P6SM SCT070 SCT250
     FM271600 36010G18KT P6SM SCT070
     FM280100 03006KT P6SM SCT070=



000
FTUS43 KLBF 271100
TAFVTN
TAF
KVTN 271130Z 2712/2812 30007KT P6SM FEW250
     FM271600 34014G22KT P6SM FEW070 SCT250
     FM280100 01008KT P6SM SCT250=



000
FTUS43 KLBF 270500
TAFLBF
TAF
KLBF 270520Z 2706/2806 VRB03KT P6SM SCT200
     FM271500 36012KT P6SM FEW100 SCT250
     FM280000 03006KT P6SM SCT250=



000
FTUS43 KLBF 270500
TAFVTN
TAF
KVTN 270520Z 2706/2806 36007KT P6SM FEW250
     FM271700 34014G22KT P6SM FEW070 SCT250
     FM280000 01010KT P6SM SCT250=



000
FTUS43 KLBF 262300
TAFVTN
TAF
KVTN 262331Z 2700/2724 36009KT P6SM FEW250
     FM271700 34014G22KT P6SM SCT070=



000
FTUS43 KLBF 262300
TAFLBF
TAF
KLBF 262331Z 2700/2724 03011KT P6SM SCT200
     FM271500 36012KT P6SM SCT250=



000
FTUS43 KLBF 261900 AAA
TAFVTN
TAF AMD
KVTN 261939Z 2620/2718 36012KT P6SM FEW025 BKN030 BKN045
     FM262100 35013KT P6SM SCT150
     FM270000 33009KT P6SM SCT150
     FM271500 33012KT P6SM SCT100=



000
FTUS43 KLBF 261900 AAA
TAFLBF
TAF AMD
KLBF 261937Z 2620/2718 01015G21KT P6SM BKN200
     FM262100 01014G24KT P6SM SCT020
     FM270200 01009KT P6SM SCT250
     FM271500 36010KT P6SM SCT250=



    US Dept of Commerce
    National Oceanic and Atmospheric Administration
    National Weather Service
    1325 East West Highway
    Silver Spring, MD 20910
    Page Author: NWS Internet Services Team
Disclaimer
Information Quality
Credits
Glossary
Privacy Policy
Freedom of Information Act (FOIA)
About Us
Career Opportunities